Time;durP1;ratioP1;P1;durP2;ratioP2;P2;SDS_P1;SDS_P2;PMS_P1;PMS_P2;Temp;Humidity;BMP_temperature;BMP_pressure;BME280_temperature;BME280_humidity;BME280_pressure;Samples;Min_cycle;Max_cycle;Signal;HPM_P1;HPM_P2
2023/05/13 00:01:22;;;;;;;;;;;;;;;13.78;78.83;101990.50;5071847;28;19920;-81
2023/05/13 00:03:47;;;;;;;;;;;;;;;13.76;78.71;101982.53;5056831;28;20320;-81
2023/05/13 00:06:13;;;;;;;;;;;;;;;13.75;78.32;101980.78;5056626;28;19920;-81
2023/05/13 00:08:38;;;;;;;;;;;;;;;13.75;78.78;101980.78;5050670;28;19985;-82
2023/05/13 00:11:03;;;;;;;;;;;;;;;13.74;78.27;101980.81;5043333;28;19940;-81
2023/05/13 00:13:29;;;;;;;;;;;;;;;13.71;78.27;101986.19;5056693;28;19921;-82
2023/05/13 00:15:54;;;;;;;;;;;;;;;13.68;78.32;101978.25;5047069;28;19921;-81
2023/05/13 00:18:20;;;;;;;;;;;;;;;13.65;78.26;101978.28;5055239;28;19974;-81
2023/05/13 00:20:45;;;;;;;;;;;;;;;13.63;78.14;101975.66;5073104;28;19979;-81
2023/05/13 00:23:10;;;;;;;;;;;;;;;13.61;78.23;101976.59;5053887;28;19924;-81
2023/05/13 00:25:36;;;;;;;;;;;;;;;13.58;78.44;101987.31;5046851;28;20394;-81
2023/05/13 00:28:02;;;;;;;;;;;;;;;13.55;78.32;101981.13;5036693;28;20011;-81
2023/05/13 00:30:27;;;;;;;;;;;;;;;13.53;78.44;101982.03;5031991;28;19925;-81
2023/05/13 00:32:52;;;;;;;;;;;;;;;13.49;78.40;101975.88;5052734;28;19931;-81
2023/05/13 00:35:18;;;;;;;;;;;;;;;13.48;78.36;101983.91;5045836;28;20284;-81
2023/05/13 00:37:43;;;;;;;;;;;;;;;13.44;77.71;101977.72;5040660;28;19921;-81
2023/05/13 00:40:15;;;;;;;;;;;;;;;13.43;77.97;101980.44;5049695;28;20015;-81
2023/05/13 00:42:40;;;;;;;;;;;;;;;13.39;78.22;101981.38;5052871;28;19917;-81
2023/05/13 00:45:06;;;;;;;;;;;;;;;13.36;78.24;101987.63;5043269;28;19929;-81
2023/05/13 00:47:32;;;;;;;;;;;;;;;13.36;78.39;101984.97;5052561;28;19932;-81
2023/05/13 00:49:57;;;;;;;;;;;;;;;13.35;77.83;101988.50;5050583;28;20020;-81
2023/05/13 00:52:22;;;;;;;;;;;;;;;13.34;78.10;101989.41;5042013;28;19921;-81
2023/05/13 00:54:48;;;;;;;;;;;;;;;13.32;77.84;101986.78;5034811;28;19921;-81
2023/05/13 00:57:13;;;;;;;;;;;;;;;13.29;78.16;101994.81;5036261;28;19920;-81
2023/05/13 00:59:39;;;;;;;;;;;;;;;13.26;77.74;101984.19;5042366;28;19970;-81
2023/05/13 01:02:07;;;;;;;;;;;;;;;13.22;78.28;101992.22;5033491;28;19921;-81
2023/05/13 01:04:51;;;;;;;;;;;;;;;13.18;78.21;101996.72;5053347;28;19936;-81
2023/05/13 01:07:23;;;;;;;;;;;;;;;13.16;78.21;101987.00;5045195;28;19916;-81
2023/05/13 01:10:07;;;;;;;;;;;;;;;13.12;77.89;101995.00;5042224;28;19921;-81
2023/05/13 01:12:34;;;;;;;;;;;;;;;13.09;77.99;101989.75;5048387;28;20011;-81
2023/05/13 01:15:08;;;;;;;;;;;;;;;13.05;78.04;101979.16;5024843;28;19917;-81
2023/05/13 01:17:36;;;;;;;;;;;;;;;13.02;78.38;101980.09;5044241;28;19917;-82
2023/05/13 01:20:03;;;;;;;;;;;;;;;13.00;78.49;101986.31;5048567;28;20614;-81
2023/05/13 01:22:29;;;;;;;;;;;;;;;12.97;78.16;101981.06;5069101;28;19928;-82
2023/05/13 01:24:55;;;;;;;;;;;;;;;12.93;77.95;101979.34;5051200;28;20241;-82
2023/05/13 01:27:21;;;;;;;;;;;;;;;12.86;78.13;101981.22;5043143;28;19917;-81
2023/05/13 01:29:48;;;;;;;;;;;;;;;12.82;78.38;101976.81;5034613;28;20394;-81
2023/05/13 01:32:18;;;;;;;;;;;;;;;12.77;78.38;101981.31;5048375;28;19940;-82
2023/05/13 01:34:44;;;;;;;;;;;;;;;12.74;77.80;101989.34;5028913;28;19924;-82
2023/05/13 01:37:09;;;;;;;;;;;;;;;12.70;78.10;101983.16;5034974;28;19967;-81
2023/05/13 01:39:37;;;;;;;;;;;;;;;12.67;78.22;101989.41;5048904;28;20051;-81
2023/05/13 01:42:06;;;;;;;;;;;;;;;12.65;77.78;101990.31;5035233;28;19967;-81
2023/05/13 01:44:32;;;;;;;;;;;;;;;12.61;77.90;101983.28;5035361;28;20293;-81
2023/05/13 01:46:58;;;;;;;;;;;;;;;12.59;77.69;101988.63;5066514;28;19912;-81
2023/05/13 01:49:24;;;;;;;;;;;;;;;12.55;77.81;101981.59;5051519;28;19925;-81
2023/05/13 01:51:50;;;;;;;;;;;;;;;12.53;78.04;101990.47;5029300;28;19921;-81
2023/05/13 01:54:16;;;;;;;;;;;;;;;12.48;77.99;101988.72;5052114;28;19921;-81
2023/05/13 01:56:46;;;;;;;;;;;;;;;12.43;78.10;101989.69;5049384;28;20387;-81
2023/05/13 01:59:12;;;;;;;;;;;;;;;12.40;78.29;101995.03;5035272;28;19921;-81
2023/05/13 02:01:39;;;;;;;;;;;;;;;12.36;77.99;101982.69;5059585;28;19927;-81
2023/05/13 02:04:05;;;;;;;;;;;;;;;12.32;78.37;101991.59;5053173;28;19939;-81
2023/05/13 02:06:31;;;;;;;;;;;;;;;12.30;78.24;101983.63;5044784;28;19913;-81
2023/05/13 02:08:57;;;;;;;;;;;;;;;12.27;78.32;101981.91;5051431;28;20433;-81
2023/05/13 02:11:22;;;;;;;;;;;;;;;12.26;78.21;101985.47;5044946;28;19917;-82
2023/05/13 02:13:48;;;;;;;;;;;;;;;12.23;78.49;101993.44;5068165;28;20348;-81
2023/05/13 02:16:16;;;;;;;;;;;;;;;12.19;78.43;101990.81;5056364;28;19948;-81
2023/05/13 02:18:41;;;;;;;;;;;;;;;12.16;78.83;101997.03;5034788;28;20322;-81
2023/05/13 02:21:07;;;;;;;;;;;;;;;12.13;78.36;101990.91;5046464;28;20002;-81
2023/05/13 02:23:32;;;;;;;;;;;;;;;12.12;78.24;101997.13;5052877;28;19947;-81
2023/05/13 02:25:57;;;;;;;;;;;;;;;12.09;78.70;101995.38;5045078;28;19941;-81
2023/05/13 02:28:25;;;;;;;;;;;;;;;12.05;78.34;101990.97;5067881;28;19928;-81
2023/05/13 02:30:51;;;;;;;;;;;;;;;12.01;78.75;101995.41;5047322;28;19920;-81
2023/05/13 02:33:16;;;;;;;;;;;;;;;11.98;78.44;101999.88;5068206;28;20435;-81
2023/05/13 02:35:42;;;;;;;;;;;;;;;11.92;78.33;101992.88;5060228;28;19920;-81
2023/05/13 02:38:08;;;;;;;;;;;;;;;11.90;79.12;101999.09;5034612;28;19921;-81
2023/05/13 02:40:33;;;;;;;;;;;;;;;11.86;78.57;101992.88;5049394;28;20330;-81
2023/05/13 02:42:59;;;;;;;;;;;;;;;11.79;78.97;101986.75;5051023;28;19989;-81
2023/05/13 02:45:40;;;;;;;;;;;;;;;11.75;78.88;101982.38;5029485;28;19919;-81
2023/05/13 02:48:06;;;;;;;;;;;;;;;11.75;78.77;101992.09;5033331;28;20381;-81
2023/05/13 02:50:32;;;;;;;;;;;;;;;11.73;78.41;101983.28;5032700;28;19921;-81
2023/05/13 02:52:58;;;;;;;;;;;;;;;11.70;79.17;101992.13;5052364;28;19921;-81
2023/05/13 02:55:23;;;;;;;;;;;;;;;11.69;78.53;101976.22;5047282;28;19941;-81
2023/05/13 02:57:49;;;;;;;;;;;;;;;11.66;79.42;101986.88;5050597;28;19916;-81
2023/05/13 03:00:15;;;;;;;;;;;;;;;11.63;78.85;101993.94;5045592;28;19971;-81
2023/05/13 03:02:40;;;;;;;;;;;;;;;11.61;78.77;101985.13;5034020;28;20261;-81
2023/05/13 03:05:06;;;;;;;;;;;;;;;11.62;79.45;101988.66;5043293;28;19921;-81
2023/05/13 03:07:32;;;;;;;;;;;;;;;11.61;79.15;101986.91;5049107;28;19921;-81
2023/05/13 03:09:57;;;;;;;;;;;;;;;11.59;79.05;101988.69;5052008;28;19932;-81
2023/05/13 03:12:23;;;;;;;;;;;;;;;11.54;78.97;101988.72;5068963;28;19936;-81
2023/05/13 03:14:48;;;;;;;;;;;;;;;11.49;79.41;101993.16;5071144;28;19939;-81
2023/05/13 03:17:13;;;;;;;;;;;;;;;11.45;79.51;101988.81;5049418;28;19959;-81
2023/05/13 03:19:39;;;;;;;;;;;;;;;11.40;79.27;101994.13;5066427;28;19928;-81
2023/05/13 03:22:05;;;;;;;;;;;;;;;11.36;79.67;101997.69;5050715;28;19947;-81
2023/05/13 03:24:31;;;;;;;;;;;;;;;11.35;79.63;102000.34;5050656;28;19917;-81
2023/05/13 03:26:57;;;;;;;;;;;;;;;11.32;79.64;102003.00;5051293;28;20021;-81
2023/05/13 03:29:23;;;;;;;;;;;;;;;11.28;79.59;101998.63;5061237;28;20384;-81
2023/05/13 03:31:51;;;;;;;;;;;;;;;11.26;79.93;101998.63;5048710;28;19924;-81
2023/05/13 03:34:16;;;;;;;;;;;;;;;11.26;79.44;101998.63;5050328;28;20371;-81
2023/05/13 03:36:42;;;;;;;;;;;;;;;11.23;79.79;102000.44;5040516;28;20007;-81
2023/05/13 03:39:07;;;;;;;;;;;;;;;11.17;79.91;101999.56;5059575;28;20100;-81
2023/05/13 03:41:33;;;;;;;;;;;;;;;11.12;80.49;102000.47;5050421;28;19917;-81
2023/05/13 03:43:59;;;;;;;;;;;;;;;11.08;80.06;102007.59;5050550;28;19956;-81
2023/05/13 03:46:26;;;;;;;;;;;;;;;11.06;80.83;102005.84;5061606;28;19968;-81
2023/05/13 03:48:54;;;;;;;;;;;;;;;11.02;80.19;102002.31;5021918;28;19959;-81
2023/05/13 03:51:20;;;;;;;;;;;;;;;11.00;80.78;101995.25;5050327;28;20461;-81
2023/05/13 03:53:46;;;;;;;;;;;;;;;10.96;80.75;102005.88;5051658;28;19912;-81
2023/05/13 03:56:11;;;;;;;;;;;;;;;10.92;81.02;102003.25;5041655;28;20350;-81
2023/05/13 03:58:37;;;;;;;;;;;;;;;10.87;81.18;102005.91;5052039;28;19916;-81
2023/05/13 04:01:03;;;;;;;;;;;;;;;10.84;80.62;102002.41;5054985;28;20376;-81
2023/05/13 04:03:28;;;;;;;;;;;;;;;10.84;80.94;102008.56;5070938;28;19917;-81
2023/05/13 04:05:54;;;;;;;;;;;;;;;10.84;80.88;102005.94;5049440;28;19928;-81
2023/05/13 04:08:19;;;;;;;;;;;;;;;10.83;81.16;102013.88;5054909;28;19913;-81
2023/05/13 04:10:44;;;;;;;;;;;;;;;10.81;80.85;102007.72;5070745;28;20303;-81
2023/05/13 04:13:10;;;;;;;;;;;;;;;10.80;81.13;102003.28;5054964;28;19959;-81
2023/05/13 04:15:35;;;;;;;;;;;;;;;10.77;81.61;102009.50;5057295;28;20010;-81
2023/05/13 04:18:01;;;;;;;;;;;;;;;10.73;81.80;102005.97;5055301;28;19994;-81
2023/05/13 04:20:27;;;;;;;;;;;;;;;10.71;81.66;102010.41;5054803;28;20402;-81
2023/05/13 04:22:53;;;;;;;;;;;;;;;10.71;81.82;102021.00;5037072;28;20051;-81
2023/05/13 04:25:19;;;;;;;;;;;;;;;10.71;82.24;102015.69;5048357;28;20011;-82
2023/05/13 04:27:46;;;;;;;;;;;;;;;10.71;82.19;102013.06;5040346;28;19925;-81
2023/05/13 04:30:22;;;;;;;;;;;;;;;10.70;82.22;102016.56;5045804;28;19944;-81
2023/05/13 04:32:47;;;;;;;;;;;;;;;10.68;81.98;102021.00;5050028;28;20220;-82
2023/05/13 04:35:14;;;;;;;;;;;;;;;10.67;82.05;102018.34;5033070;28;19921;-81
2023/05/13 04:37:43;;;;;;;;;;;;;;;10.66;82.69;102021.91;5051742;28;20387;-81
2023/05/13 04:40:12;;;;;;;;;;;;;;;10.65;82.88;102021.00;5037143;28;19935;-81
2023/05/13 04:42:37;;;;;;;;;;;;;;;10.67;83.12;102023.66;5050333;28;19920;-81
2023/05/13 04:45:03;;;;;;;;;;;;;;;10.66;82.99;102030.72;5033378;28;20012;-81
2023/05/13 04:47:29;;;;;;;;;;;;;;;10.66;82.77;102030.72;5049636;28;19935;-81
2023/05/13 04:49:54;;;;;;;;;;;;;;;10.66;82.68;102027.22;5050947;28;19953;-81
2023/05/13 04:52:20;;;;;;;;;;;;;;;10.68;83.60;102030.69;5053115;28;19920;-81
2023/05/13 04:54:45;;;;;;;;;;;;;;;10.70;82.69;102029.81;5053077;28;20394;-81
2023/05/13 04:57:10;;;;;;;;;;;;;;;10.73;83.29;102036.88;5052889;28;19917;-81
2023/05/13 04:59:36;;;;;;;;;;;;;;;10.75;83.36;102025.38;5029618;28;20320;-81
2023/05/13 05:02:02;;;;;;;;;;;;;;;10.79;83.59;102028.03;5021110;28;19921;-81
2023/05/13 05:04:27;;;;;;;;;;;;;;;10.84;83.53;102032.44;5053060;28;19920;-82
2023/05/13 05:06:53;;;;;;;;;;;;;;;10.88;83.33;102031.53;5014735;28;20365;-81
2023/05/13 05:09:19;;;;;;;;;;;;;;;10.92;83.62;102038.56;5052234;28;19921;-81
2023/05/13 05:11:48;;;;;;;;;;;;;;;10.97;84.41;102036.78;5052869;28;19928;-81
2023/05/13 05:14:14;;;;;;;;;;;;;;;11.05;83.33;102046.47;5069419;28;19928;-81
2023/05/13 05:16:40;;;;;;;;;;;;;;;11.09;83.99;102038.50;5057958;28;20275;-81
2023/05/13 05:19:07;;;;;;;;;;;;;;;11.16;83.51;102048.19;5049567;28;20265;-81
2023/05/13 05:21:34;;;;;;;;;;;;;;;11.22;84.54;102046.38;5052366;28;19925;-82
2023/05/13 05:24:00;;;;;;;;;;;;;;;11.27;84.26;102050.78;5069126;28;19927;-81
2023/05/13 05:26:26;;;;;;;;;;;;;;;11.35;84.23;102048.06;5052394;28;19921;-81
2023/05/13 05:28:51;;;;;;;;;;;;;;;11.40;83.39;102046.31;5055025;28;19927;-81
2023/05/13 05:31:17;;;;;;;;;;;;;;;11.48;84.30;102047.13;5038675;28;19978;-82
2023/05/13 05:33:43;;;;;;;;;;;;;;;11.55;83.71;102051.50;5027674;28;19924;-81
2023/05/13 05:36:08;;;;;;;;;;;;;;;11.61;83.63;102050.56;5051791;28;20281;-82
2023/05/13 05:38:34;;;;;;;;;;;;;;;11.65;83.81;102054.97;5047185;28;20372;-81
2023/05/13 05:41:00;;;;;;;;;;;;;;;11.70;83.14;102054.94;5051543;28;20015;-81
2023/05/13 05:43:26;;;;;;;;;;;;;;;11.76;82.84;102058.41;5052124;28;20007;-82
2023/05/13 05:45:51;;;;;;;;;;;;;;;11.82;84.21;102063.69;5035362;28;19920;-81
2023/05/13 05:48:18;;;;;;;;;;;;;;;11.88;83.37;102062.78;5038899;28;19913;-81
2023/05/13 05:50:43;;;;;;;;;;;;;;;11.95;83.58;102050.38;5049203;28;19925;-81
2023/05/13 05:53:13;;;;;;;;;;;;;;;12.00;83.40;102048.56;5051906;28;19912;-81
2023/05/13 05:55:38;;;;;;;;;;;;;;;12.09;83.64;102051.13;5051327;28;20024;-81
2023/05/13 05:58:05;;;;;;;;;;;;;;;12.17;82.82;102059.91;5052668;28;20400;-81
2023/05/13 06:00:32;;;;;;;;;;;;;;;12.22;82.31;102047.47;5054472;28;19917;-82
2023/05/13 06:02:57;;;;;;;;;;;;;;;12.29;82.60;102058.91;5051786;28;19943;-81
2023/05/13 06:05:23;;;;;;;;;;;;;;;12.31;82.89;102062.41;5047010;28;19923;-81
2023/05/13 06:07:48;;;;;;;;;;;;;;;12.35;82.83;102058.84;5051581;28;20003;-81
2023/05/13 06:10:13;;;;;;;;;;;;;;;12.45;83.00;102065.81;5052061;28;19933;-81
2023/05/13 06:12:40;;;;;;;;;;;;;;;12.58;83.09;102063.03;5048427;28;20012;-81
2023/05/13 06:15:10;;;;;;;;;;;;;;;12.70;82.61;102070.88;5039030;28;20004;-81
2023/05/13 06:17:36;;;;;;;;;;;;;;;12.79;82.67;102067.25;5051796;28;19999;-81
2023/05/13 06:20:04;;;;;;;;;;;;;;;12.85;81.64;102065.38;5034446;28;19971;-81
2023/05/13 06:22:29;;;;;;;;;;;;;;;12.93;82.07;102067.06;5043652;28;20359;-81
2023/05/13 06:24:55;;;;;;;;;;;;;;;13.01;81.58;102066.09;5051204;28;19939;-81
2023/05/13 06:27:20;;;;;;;;;;;;;;;13.04;81.84;102068.72;5051268;28;19920;-81
2023/05/13 06:29:46;;;;;;;;;;;;;;;13.01;81.46;102071.41;5037209;28;20338;-81
2023/05/13 06:32:11;;;;;;;;;;;;;;;12.94;81.47;102075.03;5037890;28;20292;-81
2023/05/13 06:34:38;;;;;;;;;;;;;;;12.86;81.44;102071.59;5035012;28;20074;-81
2023/05/13 06:37:04;;;;;;;;;;;;;;;12.79;81.52;102075.22;5032317;28;20283;-81
2023/05/13 06:39:29;;;;;;;;;;;;;;;12.74;81.30;102080.59;5049536;28;19913;-82
2023/05/13 06:41:55;;;;;;;;;;;;;;;12.73;82.20;102076.16;5034187;28;20334;-81
2023/05/13 06:44:24;;;;;;;;;;;;;;;12.78;81.67;102090.28;5043823;28;19913;-81
2023/05/13 06:46:53;;;;;;;;;;;;;;;12.93;82.08;102075.91;5047551;28;20009;-81
2023/05/13 06:49:18;;;;;;;;;;;;;;;13.07;82.10;102078.44;5034076;28;19921;-81
2023/05/13 06:51:44;;;;;;;;;;;;;;;13.23;82.17;102080.00;5062698;28;20308;-81
2023/05/13 06:54:09;;;;;;;;;;;;;;;13.40;81.87;102074.50;5064115;28;19943;-81
2023/05/13 06:56:35;;;;;;;;;;;;;;;13.58;82.25;102084.00;5059801;28;19983;-81
2023/05/13 06:59:00;;;;;;;;;;;;;;;13.71;81.07;102079.34;5056093;28;19936;-81
2023/05/13 07:01:26;;;;;;;;;;;;;;;13.75;80.42;102087.28;5055807;28;19925;-82
2023/05/13 07:03:52;;;;;;;;;;;;;;;13.81;80.86;102083.63;5059918;28;20345;-82
2023/05/13 07:06:17;;;;;;;;;;;;;;;13.77;80.11;102085.47;5047448;28;20011;-81
2023/05/13 07:08:42;;;;;;;;;;;;;;;13.74;80.05;102079.31;5050145;28;20437;-82
2023/05/13 07:11:08;;;;;;;;;;;;;;;13.68;80.07;102082.94;5046255;28;19925;-81
2023/05/13 07:13:33;;;;;;;;;;;;;;;13.65;80.27;102082.09;5052162;28;20326;-82
2023/05/13 07:15:59;;;;;;;;;;;;;;;13.63;80.57;102089.25;5035147;28;19928;-82
2023/05/13 07:18:25;;;;;;;;;;;;;;;13.67;80.70;102083.81;5024801;28;19966;-81
2023/05/13 07:20:50;;;;;;;;;;;;;;;13.86;81.03;102081.78;5033696;28;20312;-82
2023/05/13 07:23:15;;;;;;;;;;;;;;;14.02;80.92;102074.44;5061354;28;19920;-82
2023/05/13 07:25:41;;;;;;;;;;;;;;;14.15;80.23;102075.97;5051772;28;19920;-82
2023/05/13 07:28:07;;;;;;;;;;;;;;;14.33;80.19;102069.44;5046099;28;20344;-82
2023/05/13 07:30:33;;;;;;;;;;;;;;;14.54;80.33;102072.66;5048176;28;19964;-82
2023/05/13 07:32:58;;;;;;;;;;;;;;;14.66;79.66;102077.75;5029960;28;20058;-82
2023/05/13 07:35:23;;;;;;;;;;;;;;;14.67;79.23;102073.31;5053874;28;19923;-82
2023/05/13 07:37:49;;;;;;;;;;;;;;;14.63;78.97;102077.81;5047083;28;20265;-82
2023/05/13 07:40:14;;;;;;;;;;;;;;;14.61;78.90;102083.19;5024207;28;19956;-81
2023/05/13 07:42:40;;;;;;;;;;;;;;;14.66;79.02;102069.75;5055709;28;20393;-80
2023/05/13 07:45:06;;;;;;;;;;;;;;;14.82;78.71;102075.69;5054179;28;20050;-79
2023/05/13 07:47:32;;;;;;;;;;;;;;;15.02;78.30;102080.59;5055749;28;20041;-81
2023/05/13 07:49:57;;;;;;;;;;;;;;;15.17;77.39;102082.06;5053281;28;19964;-81
2023/05/13 07:52:23;;;;;;;;;;;;;;;15.26;77.45;102084.56;5047658;28;20368;-81
2023/05/13 07:54:48;;;;;;;;;;;;;;;15.32;77.21;102086.22;5044009;28;19994;-81
2023/05/13 07:57:13;;;;;;;;;;;;;;;15.29;77.29;102094.28;5037437;28;19928;-81
2023/05/13 07:59:39;;;;;;;;;;;;;;;15.24;77.13;102097.06;5053940;28;19924;-81
2023/05/13 08:02:04;;;;;;;;;;;;;;;15.29;77.45;102092.50;5055037;28;20371;-81
2023/05/13 08:04:30;;;;;;;;;;;;;;;15.41;77.29;102091.34;5052490;28;19963;-82
2023/05/13 08:06:55;;;;;;;;;;;;;;;15.49;77.57;102092.91;5054560;28;19916;-80
2023/05/13 08:09:20;;;;;;;;;;;;;;;15.62;77.26;102087.31;5047098;28;20291;-81
2023/05/13 08:11:46;;;;;;;;;;;;;;;15.81;77.25;102080.66;5036036;28;19947;-81
2023/05/13 08:14:11;;;;;;;;;;;;;;;16.01;76.94;102082.84;5035538;28;20364;-81
2023/05/13 08:16:36;;;;;;;;;;;;;;;16.08;75.59;102083.56;5037129;28;19921;-81
2023/05/13 08:19:02;;;;;;;;;;;;;;;16.02;75.40;102083.72;5055033;28;19917;-81
2023/05/13 08:21:28;;;;;;;;;;;;;;;15.99;75.82;102082.00;5054674;28;19925;-81
2023/05/13 08:23:53;;;;;;;;;;;;;;;16.04;75.88;102082.75;5054595;28;19925;-81
2023/05/13 08:26:19;;;;;;;;;;;;;;;16.25;76.17;102073.31;5054977;28;19974;-81
2023/05/13 08:28:44;;;;;;;;;;;;;;;16.59;76.12;102074.22;5051490;28;19921;-80
2023/05/13 08:31:13;;;;;;;;;;;;;;;16.89;75.81;102077.84;5051412;28;19982;-81
2023/05/13 08:33:40;;;;;;;;;;;;;;;17.15;75.37;102077.97;5053228;28;20288;-81
2023/05/13 08:36:06;;;;;;;;;;;;;;;17.41;75.18;102079.88;5054512;28;19920;-81
2023/05/13 08:38:32;;;;;;;;;;;;;;;17.58;73.61;102078.47;5054582;28;21187;-81
2023/05/13 08:40:58;;;;;;;;;;;;;;;17.71;73.34;102082.53;5054496;28;19920;-81
2023/05/13 08:43:23;;;;;;;;;;;;;;;17.87;73.34;102080.25;5052691;28;20359;-80
2023/05/13 08:45:51;;;;;;;;;;;;;;;18.00;72.45;102084.31;5069804;28;19921;-81
2023/05/13 08:48:18;;;;;;;;;;;;;;;18.12;71.67;102084.81;5059920;28;20000;-81
2023/05/13 08:50:44;;;;;;;;;;;;;;;18.22;70.74;102078.19;5023032;28;19978;-81
2023/05/13 08:53:10;;;;;;;;;;;;;;;18.29;70.22;102082.44;5054337;28;19913;-81
2023/05/13 08:55:37;;;;;;;;;;;;;;;18.40;68.38;102082.06;5055261;28;19927;-81
2023/05/13 08:58:02;;;;;;;;;;;;;;;18.46;69.76;102081.84;5054600;28;20280;-81
2023/05/13 09:00:28;;;;;;;;;;;;;;;18.55;69.96;102075.28;5053544;28;19917;-80
2023/05/13 09:02:53;;;;;;;;;;;;;;;18.65;69.51;102074.91;5054451;28;20379;-80
2023/05/13 09:05:20;;;;;;;;;;;;;;;18.78;69.22;102071.81;5053965;28;19924;-80
2023/05/13 09:07:45;;;;;;;;;;;;;;;18.89;68.30;102069.59;5049959;28;19932;-81
2023/05/13 09:10:10;;;;;;;;;;;;;;;19.00;68.73;102070.06;5052639;28;19924;-81
2023/05/13 09:12:42;;;;;;;;;;;;;;;19.09;68.62;102068.88;5055275;28;20013;-80
2023/05/13 09:15:08;;;;;;;;;;;;;;;19.18;66.87;102076.53;5069371;28;20019;-81
2023/05/13 09:17:37;;;;;;;;;;;;;;;19.24;66.87;102073.63;5053806;28;19970;-78
2023/05/13 09:20:06;;;;;;;;;;;;;;;19.28;65.79;102069.88;5048830;28;19924;-78
2023/05/13 09:22:32;;;;;;;;;;;;;;;19.41;66.78;102066.72;5038821;28;19917;-77
2023/05/13 09:24:57;;;;;;;;;;;;;;;19.55;65.22;102064.34;5053697;28;19935;-77
2023/05/13 09:27:34;;;;;;;;;;;;;;;19.67;67.06;102063.00;5053463;28;20348;-78
2023/05/13 09:30:00;;;;;;;;;;;;;;;19.87;64.99;102071.16;5031401;28;20013;-77
2023/05/13 09:32:25;;;;;;;;;;;;;;;20.00;65.10;102059.88;5040571;28;19952;-78
2023/05/13 09:34:51;;;;;;;;;;;;;;;20.11;64.97;102057.63;5052093;28;19921;-78
2023/05/13 09:37:17;;;;;;;;;;;;;;;20.21;63.29;102045.53;5035445;28;19931;-77
2023/05/13 09:39:42;;;;;;;;;;;;;;;20.28;64.47;102057.78;5053417;28;19924;-77
2023/05/13 09:42:15;;;;;;;;;;;;;;;20.44;64.25;102052.59;5053472;28;19943;-77
2023/05/13 09:44:41;;;;;;;;;;;;;;;20.61;64.39;102055.44;5052126;28;19917;-77
2023/05/13 09:47:10;;;;;;;;;;;;;;;20.73;63.53;102047.78;5054281;28;20016;-77
2023/05/13 09:49:36;;;;;;;;;;;;;;;20.88;65.44;102047.06;5051781;28;19959;-77
2023/05/13 09:52:01;;;;;;;;;;;;;;;21.03;64.23;102053.56;5053037;28;19975;-77
2023/05/13 09:54:33;;;;;;;;;;;;;;;21.13;63.54;102048.63;5051715;28;19920;-77
2023/05/13 09:57:00;;;;;;;;;;;;;;;21.25;62.59;102048.03;5052239;28;20368;-77
2023/05/13 09:59:25;;;;;;;;;;;;;;;21.35;60.40;102041.25;5053401;28;19927;-77
2023/05/13 10:01:52;;;;;;;;;;;;;;;21.44;60.02;102040.84;5052982;28;19921;-77
2023/05/13 10:04:18;;;;;;;;;;;;;;;21.58;60.78;102042.00;5051876;28;20352;-77
2023/05/13 10:06:46;;;;;;;;;;;;;;;21.76;57.73;102040.19;5051521;28;19916;-77
2023/05/13 10:09:12;;;;;;;;;;;;;;;21.84;59.89;102035.31;5052796;28;20359;-77
2023/05/13 10:11:38;;;;;;;;;;;;;;;21.90;58.71;102033.16;5051458;28;19921;-77
2023/05/13 10:14:07;;;;;;;;;;;;;;;22.06;57.73;102032.41;5051382;28;19994;-77
2023/05/13 10:16:32;;;;;;;;;;;;;;;22.16;58.94;102040.91;5051396;28;20021;-77
2023/05/13 10:18:58;;;;;;;;;;;;;;;22.27;58.28;102031.31;5051094;28;19952;-77
2023/05/13 10:21:27;;;;;;;;;;;;;;;22.41;57.77;102030.59;5051022;28;19925;-77
2023/05/13 10:23:52;;;;;;;;;;;;;;;22.52;58.94;102021.91;5051324;28;20387;-76
2023/05/13 10:26:19;;;;;;;;;;;;;;;22.72;53.09;102024.44;5051093;28;20011;-77
2023/05/13 10:28:44;;;;;;;;;;;;;;;22.83;55.89;102021.13;5032918;28;19917;-77
2023/05/13 10:31:10;;;;;;;;;;;;;;;22.91;52.87;102031.53;5052150;28;19928;-77
2023/05/13 10:33:35;;;;;;;;;;;;;;;22.93;54.07;102022.38;5051286;28;19917;-80
2023/05/13 10:36:10;;;;;;;;;;;;;;;23.03;54.11;102021.91;5045783;28;19928;-80
2023/05/13 10:38:35;;;;;;;;;;;;;;;23.23;54.73;102026.19;5060491;28;20296;-80
2023/05/13 10:41:00;;;;;;;;;;;;;;;23.39;53.96;102021.63;5050900;28;19917;-80
2023/05/13 10:43:27;;;;;;;;;;;;;;;23.52;52.94;102016.44;5052350;28;20334;-80
2023/05/13 10:45:57;;;;;;;;;;;;;;;23.67;53.46;102020.06;5052275;28;19913;-80
2023/05/13 10:48:22;;;;;;;;;;;;;;;23.79;54.33;102017.53;5052308;28;19963;-80
2023/05/13 10:50:52;;;;;;;;;;;;;;;23.93;49.83;102016.72;5052228;28;19960;-80
2023/05/13 10:53:24;;;;;;;;;;;;;;;23.98;55.09;102008.31;5052796;28;19921;-81
2023/05/13 10:55:58;;;;;;;;;;;;;;;24.09;52.94;102008.56;5043436;28;19928;-80
2023/05/13 10:58:30;;;;;;;;;;;;;;;24.14;47.82;102016.41;5064387;28;19916;-80
2023/05/13 11:01:14;;;;;;;;;;;;;;;24.23;49.45;102014.00;5044750;28;20314;-80
2023/05/13 11:03:40;;;;;;;;;;;;;;;24.26;45.28;102007.53;5054500;28;19920;-80
2023/05/13 11:06:12;;;;;;;;;;;;;;;24.24;50.05;102010.31;5052460;28;19919;-80
2023/05/13 11:08:38;;;;;;;;;;;;;;;24.36;48.35;102011.41;5050589;28;19947;-80
2023/05/13 11:11:22;;;;;;;;;;;;;;;24.45;51.76;101999.13;5050565;28;20382;-80
2023/05/13 11:13:55;;;;;;;;;;;;;;;24.53;43.99;101999.59;5050592;28;20019;-81
2023/05/13 11:16:22;;;;;;;;;;;;;;;24.59;45.49;101999.19;5050839;28;20016;-80
2023/05/13 11:18:48;;;;;;;;;;;;;;;24.67;44.90;101996.00;5051115;28;19917;-80
2023/05/13 11:21:13;;;;;;;;;;;;;;;24.82;48.50;101994.16;5050929;28;19920;-80
2023/05/13 11:23:57;;;;;;;;;;;;;;;24.86;48.39;101985.72;5050912;28;19921;-80
2023/05/13 11:26:22;;;;;;;;;;;;;;;25.09;43.84;101980.66;5052139;28;19924;-80
2023/05/13 11:28:55;;;;;;;;;;;;;;;25.25;47.24;101976.00;5049875;28;20388;-76
2023/05/13 11:31:22;;;;;;;;;;;;;;;25.42;46.24;101974.00;5051042;28;20010;-76
2023/05/13 11:34:06;;;;;;;;;;;;;;;25.21;47.46;101984.44;5050413;28;20351;-77
2023/05/13 11:36:32;;;;;;;;;;;;;;;25.19;44.42;101984.53;5049266;28;19916;-76
2023/05/13 11:39:04;;;;;;;;;;;;;;;25.23;39.89;101982.50;5051383;28;19917;-76
2023/05/13 11:41:31;;;;;;;;;;;;;;;25.39;46.38;101983.22;5051799;28;20330;-76
2023/05/13 11:43:58;;;;;;;;;;;;;;;25.35;42.37;101980.84;5051529;28;19913;-76
2023/05/13 11:46:24;;;;;;;;;;;;;;;25.03;43.26;101976.50;5051670;28;19990;-76
2023/05/13 11:48:50;;;;;;;;;;;;;;;24.71;45.72;101973.16;5051445;28;20003;-76
2023/05/13 11:51:18;;;;;;;;;;;;;;;24.54;43.46;101973.38;5033476;28;19936;-76
2023/05/13 11:53:44;;;;;;;;;;;;;;;24.80;41.09;101967.16;5050049;28;19955;-77
2023/05/13 11:56:10;;;;;;;;;;;;;;;25.21;44.23;101968.19;5049985;28;20305;-76
2023/05/13 11:58:35;;;;;;;;;;;;;;;25.60;42.45;101964.66;5038681;28;19938;-76
2023/05/13 12:01:00;;;;;;;;;;;;;;;25.93;41.75;101957.91;5050076;28;19921;-77
2023/05/13 12:03:26;;;;;;;;;;;;;;;26.10;41.68;101962.19;5051580;28;19917;-77
2023/05/13 12:05:59;;;;;;;;;;;;;;;25.94;42.82;101965.09;5051146;28;20272;-76
2023/05/13 12:08:25;;;;;;;;;;;;;;;25.93;46.28;101957.91;5050046;28;19920;-76
2023/05/13 12:10:50;;;;;;;;;;;;;;;26.20;43.64;101951.53;5050172;28;20344;-76
2023/05/13 12:13:16;;;;;;;;;;;;;;;26.53;40.47;101957.34;5051456;28;19921;-77
2023/05/13 12:15:42;;;;;;;;;;;;;;;26.55;37.70;101960.78;5050055;28;20209;-77
2023/05/13 12:18:07;;;;;;;;;;;;;;;26.60;34.50;101955.88;5033379;28;20299;-77
2023/05/13 12:20:32;;;;;;;;;;;;;;;26.60;40.76;101953.16;5053965;28;19921;-76
2023/05/13 12:22:59;;;;;;;;;;;;;;;26.69;40.54;101962.53;5053436;28;19924;-77
2023/05/13 12:25:31;;;;;;;;;;;;;;;26.70;39.56;101949.78;5054783;28;20003;-77
2023/05/13 12:27:57;;;;;;;;;;;;;;;26.72;32.75;101967.72;5054582;28;20371;-75
2023/05/13 12:30:22;;;;;;;;;;;;;;;26.78;34.50;101953.72;5052526;28;19921;-76
2023/05/13 12:32:48;;;;;;;;;;;;;;;26.91;38.39;101959.09;5054623;28;19921;-76